sensor_id;sensor_type;location;lat;lon;timestamp;P1;durP1;ratioP1;P2;durP2;ratioP2
46835;SDS011;32573;51.290;6.926;2023-12-04T00:02:03;9.35;;;4.00;;
46835;SDS011;32573;51.290;6.926;2023-12-04T00:04:32;7.47;;;3.38;;
46835;SDS011;32573;51.290;6.926;2023-12-04T00:07:00;10.93;;;4.50;;
46835;SDS011;32573;51.290;6.926;2023-12-04T00:09:28;11.13;;;5.30;;
46835;SDS011;32573;51.290;6.926;2023-12-04T00:11:57;9.50;;;4.13;;
46835;SDS011;32573;51.290;6.926;2023-12-04T00:14:25;8.40;;;3.53;;
46835;SDS011;32573;51.290;6.926;2023-12-04T00:16:53;8.68;;;3.92;;
46835;SDS011;32573;51.290;6.926;2023-12-04T00:19:23;10.55;;;5.00;;
46835;SDS011;32573;51.290;6.926;2023-12-04T00:21:52;8.35;;;3.58;;
46835;SDS011;32573;51.290;6.926;2023-12-04T00:24:20;9.40;;;4.10;;
46835;SDS011;32573;51.290;6.926;2023-12-04T00:26:49;6.88;;;3.40;;
46835;SDS011;32573;51.290;6.926;2023-12-04T00:29:17;8.95;;;3.40;;
46835;SDS011;32573;51.290;6.926;2023-12-04T00:31:45;7.22;;;3.35;;
46835;SDS011;32573;51.290;6.926;2023-12-04T00:34:14;7.57;;;3.47;;
46835;SDS011;32573;51.290;6.926;2023-12-04T00:36:44;9.43;;;3.97;;
46835;SDS011;32573;51.290;6.926;2023-12-04T00:39:12;7.68;;;3.33;;
46835;SDS011;32573;51.290;6.926;2023-12-04T00:41:40;7.72;;;3.58;;
46835;SDS011;32573;51.290;6.926;2023-12-04T00:44:08;7.47;;;3.70;;
46835;SDS011;32573;51.290;6.926;2023-12-04T00:46:37;8.55;;;3.50;;
46835;SDS011;32573;51.290;6.926;2023-12-04T00:49:05;9.40;;;3.95;;
46835;SDS011;32573;51.290;6.926;2023-12-04T00:51:36;8.90;;;3.95;;
46835;SDS011;32573;51.290;6.926;2023-12-04T00:54:07;7.60;;;3.42;;
46835;SDS011;32573;51.290;6.926;2023-12-04T00:56:37;7.43;;;3.30;;
46835;SDS011;32573;51.290;6.926;2023-12-04T00:59:06;8.27;;;3.33;;
46835;SDS011;32573;51.290;6.926;2023-12-04T01:01:35;7.50;;;2.97;;
46835;SDS011;32573;51.290;6.926;2023-12-04T01:04:03;8.07;;;3.17;;
46835;SDS011;32573;51.290;6.926;2023-12-04T01:06:32;7.78;;;3.38;;
46835;SDS011;32573;51.290;6.926;2023-12-04T01:09:00;7.15;;;3.15;;
46835;SDS011;32573;51.290;6.926;2023-12-04T01:11:30;6.93;;;3.40;;
46835;SDS011;32573;51.290;6.926;2023-12-04T01:13:58;7.20;;;2.90;;
46835;SDS011;32573;51.290;6.926;2023-12-04T01:16:27;7.07;;;2.95;;
46835;SDS011;32573;51.290;6.926;2023-12-04T01:18:56;9.63;;;3.35;;
46835;SDS011;32573;51.290;6.926;2023-12-04T01:21:24;6.97;;;3.00;;
46835;SDS011;32573;51.290;6.926;2023-12-04T01:23:52;7.35;;;3.45;;
46835;SDS011;32573;51.290;6.926;2023-12-04T01:26:21;8.18;;;3.25;;
46835;SDS011;32573;51.290;6.926;2023-12-04T01:28:50;7.15;;;3.08;;
46835;SDS011;32573;51.290;6.926;2023-12-04T01:31:19;7.25;;;3.47;;
46835;SDS011;32573;51.290;6.926;2023-12-04T01:33:47;6.68;;;2.95;;
46835;SDS011;32573;51.290;6.926;2023-12-04T01:36:15;6.13;;;2.70;;
46835;SDS011;32573;51.290;6.926;2023-12-04T01:38:45;5.90;;;2.92;;
46835;SDS011;32573;51.290;6.926;2023-12-04T01:41:13;6.22;;;2.90;;
46835;SDS011;32573;51.290;6.926;2023-12-04T01:43:42;6.28;;;3.00;;
46835;SDS011;32573;51.290;6.926;2023-12-04T01:46:11;7.80;;;3.00;;
46835;SDS011;32573;51.290;6.926;2023-12-04T01:48:43;5.30;;;2.58;;
46835;SDS011;32573;51.290;6.926;2023-12-04T01:51:13;7.45;;;3.17;;
46835;SDS011;32573;51.290;6.926;2023-12-04T01:53:44;5.97;;;2.90;;
46835;SDS011;32573;51.290;6.926;2023-12-04T01:56:14;5.38;;;3.10;;
46835;SDS011;32573;51.290;6.926;2023-12-04T01:58:43;6.97;;;2.90;;
46835;SDS011;32573;51.290;6.926;2023-12-04T02:01:13;6.90;;;3.00;;
46835;SDS011;32573;51.290;6.926;2023-12-04T02:03:42;8.32;;;3.38;;
46835;SDS011;32573;51.290;6.926;2023-12-04T02:06:10;6.88;;;3.30;;
46835;SDS011;32573;51.290;6.926;2023-12-04T02:08:40;6.60;;;2.90;;
46835;SDS011;32573;51.290;6.926;2023-12-04T02:11:08;5.82;;;3.00;;
46835;SDS011;32573;51.290;6.926;2023-12-04T02:13:37;6.70;;;2.83;;
46835;SDS011;32573;51.290;6.926;2023-12-04T02:16:06;7.53;;;3.00;;
46835;SDS011;32573;51.290;6.926;2023-12-04T02:18:39;6.55;;;3.05;;
46835;SDS011;32573;51.290;6.926;2023-12-04T02:21:08;7.13;;;3.30;;
46835;SDS011;32573;51.290;6.926;2023-12-04T02:23:36;7.47;;;3.08;;
46835;SDS011;32573;51.290;6.926;2023-12-04T02:26:12;6.22;;;2.90;;
46835;SDS011;32573;51.290;6.926;2023-12-04T02:28:45;7.57;;;3.80;;
46835;SDS011;32573;51.290;6.926;2023-12-04T02:31:16;6.38;;;3.03;;
46835;SDS011;32573;51.290;6.926;2023-12-04T02:33:46;6.95;;;3.30;;
46835;SDS011;32573;51.290;6.926;2023-12-04T02:36:16;5.70;;;2.78;;
46835;SDS011;32573;51.290;6.926;2023-12-04T02:38:45;6.50;;;2.90;;
46835;SDS011;32573;51.290;6.926;2023-12-04T02:41:15;6.55;;;2.95;;
46835;SDS011;32573;51.290;6.926;2023-12-04T02:43:44;6.72;;;3.13;;
46835;SDS011;32573;51.290;6.926;2023-12-04T02:46:12;5.68;;;3.00;;
46835;SDS011;32573;51.290;6.926;2023-12-04T02:48:41;6.40;;;2.85;;
46835;SDS011;32573;51.290;6.926;2023-12-04T02:51:09;7.30;;;3.08;;
46835;SDS011;32573;51.290;6.926;2023-12-04T02:53:38;6.93;;;3.22;;
46835;SDS011;32573;51.290;6.926;2023-12-04T02:56:06;5.95;;;2.80;;
46835;SDS011;32573;51.290;6.926;2023-12-04T02:58:36;5.30;;;2.75;;
46835;SDS011;32573;51.290;6.926;2023-12-04T03:01:05;7.38;;;3.30;;
46835;SDS011;32573;51.290;6.926;2023-12-04T03:03:33;5.60;;;2.88;;
46835;SDS011;32573;51.290;6.926;2023-12-04T03:06:02;6.13;;;2.75;;
46835;SDS011;32573;51.290;6.926;2023-12-04T03:08:31;6.15;;;3.00;;
46835;SDS011;32573;51.290;6.926;2023-12-04T03:11:00;6.13;;;3.00;;
46835;SDS011;32573;51.290;6.926;2023-12-04T03:13:29;6.13;;;2.47;;
46835;SDS011;32573;51.290;6.926;2023-12-04T03:15:59;7.57;;;3.05;;
46835;SDS011;32573;51.290;6.926;2023-12-04T03:18:27;5.68;;;2.47;;
46835;SDS011;32573;51.290;6.926;2023-12-04T03:20:56;6.43;;;2.72;;
46835;SDS011;32573;51.290;6.926;2023-12-04T03:23:24;6.07;;;2.80;;
46835;SDS011;32573;51.290;6.926;2023-12-04T03:25:52;7.13;;;2.95;;
46835;SDS011;32573;51.290;6.926;2023-12-04T03:28:20;6.63;;;2.67;;
46835;SDS011;32573;51.290;6.926;2023-12-04T03:30:48;7.30;;;3.38;;
46835;SDS011;32573;51.290;6.926;2023-12-04T03:33:18;5.32;;;2.60;;
46835;SDS011;32573;51.290;6.926;2023-12-04T03:35:47;6.22;;;2.72;;
46835;SDS011;32573;51.290;6.926;2023-12-04T03:38:15;6.05;;;2.65;;
46835;SDS011;32573;51.290;6.926;2023-12-04T03:40:43;6.07;;;2.92;;
46835;SDS011;32573;51.290;6.926;2023-12-04T03:43:12;6.15;;;2.80;;
46835;SDS011;32573;51.290;6.926;2023-12-04T03:45:40;5.30;;;2.53;;
46835;SDS011;32573;51.290;6.926;2023-12-04T03:48:08;6.03;;;2.33;;
46835;SDS011;32573;51.290;6.926;2023-12-04T03:50:38;5.88;;;2.55;;
46835;SDS011;32573;51.290;6.926;2023-12-04T03:53:06;6.35;;;2.60;;
46835;SDS011;32573;51.290;6.926;2023-12-04T03:55:35;5.60;;;2.08;;
46835;SDS011;32573;51.290;6.926;2023-12-04T03:58:03;5.90;;;2.50;;
46835;SDS011;32573;51.290;6.926;2023-12-04T04:00:31;6.05;;;2.30;;
46835;SDS011;32573;51.290;6.926;2023-12-04T04:03:00;6.60;;;2.65;;
46835;SDS011;32573;51.290;6.926;2023-12-04T04:05:29;5.05;;;2.30;;
46835;SDS011;32573;51.290;6.926;2023-12-04T04:07:58;6.50;;;2.63;;
46835;SDS011;32573;51.290;6.926;2023-12-04T04:10:27;4.50;;;2.40;;
46835;SDS011;32573;51.290;6.926;2023-12-04T04:12:56;4.45;;;2.22;;
46835;SDS011;32573;51.290;6.926;2023-12-04T04:15:24;4.82;;;2.40;;
46835;SDS011;32573;51.290;6.926;2023-12-04T04:17:52;4.28;;;2.00;;
46835;SDS011;32573;51.290;6.926;2023-12-04T04:20:21;5.65;;;2.22;;
46835;SDS011;32573;51.290;6.926;2023-12-04T04:22:49;5.00;;;2.20;;
46835;SDS011;32573;51.290;6.926;2023-12-04T04:25:20;5.22;;;2.30;;
46835;SDS011;32573;51.290;6.926;2023-12-04T04:27:50;4.68;;;1.98;;
46835;SDS011;32573;51.290;6.926;2023-12-04T04:30:18;5.47;;;2.40;;
46835;SDS011;32573;51.290;6.926;2023-12-04T04:32:46;5.60;;;2.42;;
46835;SDS011;32573;51.290;6.926;2023-12-04T04:35:15;6.28;;;2.38;;
46835;SDS011;32573;51.290;6.926;2023-12-04T04:37:43;6.80;;;3.25;;
46835;SDS011;32573;51.290;6.926;2023-12-04T04:40:13;5.60;;;2.60;;
46835;SDS011;32573;51.290;6.926;2023-12-04T04:42:43;7.60;;;2.42;;
46835;SDS011;32573;51.290;6.926;2023-12-04T04:45:12;5.32;;;2.42;;
46835;SDS011;32573;51.290;6.926;2023-12-04T04:47:40;4.25;;;2.00;;
46835;SDS011;32573;51.290;6.926;2023-12-04T04:50:09;5.57;;;2.53;;
46835;SDS011;32573;51.290;6.926;2023-12-04T04:52:37;5.43;;;2.33;;
46835;SDS011;32573;51.290;6.926;2023-12-04T04:55:06;6.20;;;2.30;;
46835;SDS011;32573;51.290;6.926;2023-12-04T04:57:35;5.43;;;2.40;;
46835;SDS011;32573;51.290;6.926;2023-12-04T05:00:05;5.93;;;2.70;;
46835;SDS011;32573;51.290;6.926;2023-12-04T05:02:34;6.50;;;2.60;;
46835;SDS011;32573;51.290;6.926;2023-12-04T05:05:03;5.85;;;2.50;;
46835;SDS011;32573;51.290;6.926;2023-12-04T05:07:31;5.78;;;2.72;;
46835;SDS011;32573;51.290;6.926;2023-12-04T05:10:00;6.32;;;2.65;;
46835;SDS011;32573;51.290;6.926;2023-12-04T05:12:32;5.47;;;2.53;;
46835;SDS011;32573;51.290;6.926;2023-12-04T05:15:00;5.05;;;2.40;;
46835;SDS011;32573;51.290;6.926;2023-12-04T05:17:30;6.57;;;2.78;;
46835;SDS011;32573;51.290;6.926;2023-12-04T05:19:58;5.97;;;2.78;;
46835;SDS011;32573;51.290;6.926;2023-12-04T05:22:27;5.93;;;2.50;;
46835;SDS011;32573;51.290;6.926;2023-12-04T05:24:55;6.63;;;2.70;;
46835;SDS011;32573;51.290;6.926;2023-12-04T05:27:24;5.95;;;2.90;;
46835;SDS011;32573;51.290;6.926;2023-12-04T05:29:52;5.97;;;2.78;;
46835;SDS011;32573;51.290;6.926;2023-12-04T05:32:20;6.05;;;3.00;;
46835;SDS011;32573;51.290;6.926;2023-12-04T05:34:50;6.28;;;2.80;;
46835;SDS011;32573;51.290;6.926;2023-12-04T05:37:18;5.93;;;2.67;;
46835;SDS011;32573;51.290;6.926;2023-12-04T05:39:46;5.93;;;2.70;;
46835;SDS011;32573;51.290;6.926;2023-12-04T05:42:15;6.80;;;2.72;;
46835;SDS011;32573;51.290;6.926;2023-12-04T05:44:43;7.75;;;2.83;;
46835;SDS011;32573;51.290;6.926;2023-12-04T05:47:11;7.07;;;3.28;;
46835;SDS011;32573;51.290;6.926;2023-12-04T05:49:39;7.88;;;3.20;;
46835;SDS011;32573;51.290;6.926;2023-12-04T05:52:09;6.90;;;2.80;;
46835;SDS011;32573;51.290;6.926;2023-12-04T05:54:38;6.47;;;3.10;;
46835;SDS011;32573;51.290;6.926;2023-12-04T05:57:06;6.47;;;2.97;;
46835;SDS011;32573;51.290;6.926;2023-12-04T05:59:34;6.72;;;3.08;;
46835;SDS011;32573;51.290;6.926;2023-12-04T06:02:03;8.32;;;3.40;;
46835;SDS011;32573;51.290;6.926;2023-12-04T06:04:31;7.78;;;3.70;;
46835;SDS011;32573;51.290;6.926;2023-12-04T06:06:59;9.05;;;3.45;;
46835;SDS011;32573;51.290;6.926;2023-12-04T06:09:29;6.63;;;3.17;;
46835;SDS011;32573;51.290;6.926;2023-12-04T06:11:57;6.63;;;3.15;;
46835;SDS011;32573;51.290;6.926;2023-12-04T06:14:31;6.63;;;3.20;;
46835;SDS011;32573;51.290;6.926;2023-12-04T06:16:59;7.63;;;3.08;;
46835;SDS011;32573;51.290;6.926;2023-12-04T06:19:27;5.80;;;2.80;;
46835;SDS011;32573;51.290;6.926;2023-12-04T06:21:56;5.82;;;2.97;;
46835;SDS011;32573;51.290;6.926;2023-12-04T06:24:24;6.47;;;2.83;;
46835;SDS011;32573;51.290;6.926;2023-12-04T06:26:55;6.20;;;2.60;;
46835;SDS011;32573;51.290;6.926;2023-12-04T06:29:24;6.45;;;2.75;;
46835;SDS011;32573;51.290;6.926;2023-12-04T06:31:53;6.78;;;3.05;;
46835;SDS011;32573;51.290;6.926;2023-12-04T06:34:22;7.35;;;3.10;;
46835;SDS011;32573;51.290;6.926;2023-12-04T06:36:51;5.78;;;2.50;;
46835;SDS011;32573;51.290;6.926;2023-12-04T06:39:20;5.38;;;2.63;;
46835;SDS011;32573;51.290;6.926;2023-12-04T06:41:49;5.35;;;2.70;;
46835;SDS011;32573;51.290;6.926;2023-12-04T06:44:19;6.90;;;3.10;;
46835;SDS011;32573;51.290;6.926;2023-12-04T06:46:48;6.20;;;3.13;;
46835;SDS011;32573;51.290;6.926;2023-12-04T06:49:18;5.63;;;2.88;;
46835;SDS011;32573;51.290;6.926;2023-12-04T06:51:47;6.78;;;3.42;;
46835;SDS011;32573;51.290;6.926;2023-12-04T06:54:15;6.63;;;2.75;;
46835;SDS011;32573;51.290;6.926;2023-12-04T06:56:44;6.60;;;2.58;;
46835;SDS011;32573;51.290;6.926;2023-12-04T06:59:13;6.30;;;3.28;;
46835;SDS011;32573;51.290;6.926;2023-12-04T07:01:42;7.88;;;3.05;;
46835;SDS011;32573;51.290;6.926;2023-12-04T07:04:11;6.35;;;2.53;;
46835;SDS011;32573;51.290;6.926;2023-12-04T07:06:40;5.72;;;2.50;;
46835;SDS011;32573;51.290;6.926;2023-12-04T07:09:09;7.70;;;3.17;;
46835;SDS011;32573;51.290;6.926;2023-12-04T07:11:38;6.80;;;3.30;;
46835;SDS011;32573;51.290;6.926;2023-12-04T07:14:06;6.93;;;3.42;;
46835;SDS011;32573;51.290;6.926;2023-12-04T07:16:38;7.68;;;3.65;;
46835;SDS011;32573;51.290;6.926;2023-12-04T07:19:09;6.80;;;3.25;;
46835;SDS011;32573;51.290;6.926;2023-12-04T07:21:38;7.35;;;3.55;;
46835;SDS011;32573;51.290;6.926;2023-12-04T07:24:06;7.40;;;3.50;;
46835;SDS011;32573;51.290;6.926;2023-12-04T07:26:35;6.22;;;2.95;;
46835;SDS011;32573;51.290;6.926;2023-12-04T07:29:03;7.88;;;3.53;;
46835;SDS011;32573;51.290;6.926;2023-12-04T07:31:32;5.75;;;2.60;;
46835;SDS011;32573;51.290;6.926;2023-12-04T07:34:00;8.10;;;3.70;;
46835;SDS011;32573;51.290;6.926;2023-12-04T07:36:30;6.10;;;3.08;;
46835;SDS011;32573;51.290;6.926;2023-12-04T07:38:58;6.53;;;2.83;;
46835;SDS011;32573;51.290;6.926;2023-12-04T07:41:27;6.22;;;3.30;;
46835;SDS011;32573;51.290;6.926;2023-12-04T07:43:55;6.07;;;2.88;;
46835;SDS011;32573;51.290;6.926;2023-12-04T07:46:23;5.93;;;2.40;;
46835;SDS011;32573;51.290;6.926;2023-12-04T07:48:52;6.22;;;2.55;;
46835;SDS011;32573;51.290;6.926;2023-12-04T07:51:22;5.43;;;2.70;;
46835;SDS011;32573;51.290;6.926;2023-12-04T07:53:52;6.22;;;2.97;;
46835;SDS011;32573;51.290;6.926;2023-12-04T07:56:20;6.60;;;2.80;;
46835;SDS011;32573;51.290;6.926;2023-12-04T07:58:48;5.50;;;2.67;;
46835;SDS011;32573;51.290;6.926;2023-12-04T08:01:17;6.45;;;2.85;;
46835;SDS011;32573;51.290;6.926;2023-12-04T08:03:46;5.40;;;2.47;;
46835;SDS011;32573;51.290;6.926;2023-12-04T08:06:14;5.50;;;2.75;;
46835;SDS011;32573;51.290;6.926;2023-12-04T08:08:45;6.35;;;2.70;;
46835;SDS011;32573;51.290;6.926;2023-12-04T08:11:15;5.90;;;2.25;;
46835;SDS011;32573;51.290;6.926;2023-12-04T08:13:44;6.03;;;2.72;;
46835;SDS011;32573;51.290;6.926;2023-12-04T08:16:12;6.10;;;2.90;;
46835;SDS011;32573;51.290;6.926;2023-12-04T08:18:41;6.28;;;2.78;;
46835;SDS011;32573;51.290;6.926;2023-12-04T08:21:11;6.25;;;2.35;;
46835;SDS011;32573;51.290;6.926;2023-12-04T08:23:40;6.05;;;2.85;;
46835;SDS011;32573;51.290;6.926;2023-12-04T08:26:08;5.93;;;2.80;;
46835;SDS011;32573;51.290;6.926;2023-12-04T08:28:38;6.72;;;2.50;;
46835;SDS011;32573;51.290;6.926;2023-12-04T08:31:08;5.45;;;2.15;;
46835;SDS011;32573;51.290;6.926;2023-12-04T08:33:37;4.25;;;2.10;;
46835;SDS011;32573;51.290;6.926;2023-12-04T08:36:05;5.78;;;2.33;;
46835;SDS011;32573;51.290;6.926;2023-12-04T08:38:34;4.20;;;1.83;;
46835;SDS011;32573;51.290;6.926;2023-12-04T08:41:03;4.88;;;2.35;;
46835;SDS011;32573;51.290;6.926;2023-12-04T08:43:31;4.43;;;2.13;;
46835;SDS011;32573;51.290;6.926;2023-12-04T08:46:01;7.40;;;3.00;;
46835;SDS011;32573;51.290;6.926;2023-12-04T08:48:30;6.18;;;2.47;;
46835;SDS011;32573;51.290;6.926;2023-12-04T08:50:59;5.22;;;2.17;;
46835;SDS011;32573;51.290;6.926;2023-12-04T08:53:28;4.30;;;2.10;;
46835;SDS011;32573;51.290;6.926;2023-12-04T08:55:57;5.50;;;2.47;;
46835;SDS011;32573;51.290;6.926;2023-12-04T08:58:26;5.47;;;2.10;;
46835;SDS011;32573;51.290;6.926;2023-12-04T09:00:54;5.22;;;2.33;;
46835;SDS011;32573;51.290;6.926;2023-12-04T09:03:24;4.85;;;2.22;;
46835;SDS011;32573;51.290;6.926;2023-12-04T09:05:58;5.18;;;2.00;;
46835;SDS011;32573;51.290;6.926;2023-12-04T09:08:27;4.43;;;2.10;;
46835;SDS011;32573;51.290;6.926;2023-12-04T09:11:05;4.55;;;2.17;;
46835;SDS011;32573;51.290;6.926;2023-12-04T09:13:37;3.83;;;1.77;;
46835;SDS011;32573;51.290;6.926;2023-12-04T09:16:05;4.88;;;2.10;;
46835;SDS011;32573;51.290;6.926;2023-12-04T09:18:36;4.03;;;1.98;;
46835;SDS011;32573;51.290;6.926;2023-12-04T09:21:05;4.20;;;1.80;;
46835;SDS011;32573;51.290;6.926;2023-12-04T09:23:35;3.85;;;1.92;;
46835;SDS011;32573;51.290;6.926;2023-12-04T09:26:03;4.53;;;1.83;;
46835;SDS011;32573;51.290;6.926;2023-12-04T09:28:32;5.40;;;1.80;;
46835;SDS011;32573;51.290;6.926;2023-12-04T09:31:01;5.60;;;2.50;;
46835;SDS011;32573;51.290;6.926;2023-12-04T09:33:29;4.10;;;1.90;;
46835;SDS011;32573;51.290;6.926;2023-12-04T09:35:59;4.68;;;2.20;;
46835;SDS011;32573;51.290;6.926;2023-12-04T09:38:28;3.95;;;1.90;;
46835;SDS011;32573;51.290;6.926;2023-12-04T09:40:57;5.20;;;1.92;;
46835;SDS011;32573;51.290;6.926;2023-12-04T09:43:28;6.22;;;2.33;;
46835;SDS011;32573;51.290;6.926;2023-12-04T09:45:58;4.68;;;2.10;;
46835;SDS011;32573;51.290;6.926;2023-12-04T09:48:28;4.72;;;2.20;;
46835;SDS011;32573;51.290;6.926;2023-12-04T09:51:00;5.32;;;2.30;;
46835;SDS011;32573;51.290;6.926;2023-12-04T09:53:29;4.28;;;1.95;;
46835;SDS011;32573;51.290;6.926;2023-12-04T09:55:59;4.13;;;2.00;;
46835;SDS011;32573;51.290;6.926;2023-12-04T09:58:31;5.35;;;2.30;;
46835;SDS011;32573;51.290;6.926;2023-12-04T10:01:00;5.65;;;2.55;;
46835;SDS011;32573;51.290;6.926;2023-12-04T10:03:30;5.78;;;2.15;;
46835;SDS011;32573;51.290;6.926;2023-12-04T10:06:02;5.22;;;2.40;;
46835;SDS011;32573;51.290;6.926;2023-12-04T10:08:32;5.00;;;2.30;;
46835;SDS011;32573;51.290;6.926;2023-12-04T10:11:00;5.38;;;2.50;;
46835;SDS011;32573;51.290;6.926;2023-12-04T10:13:28;6.75;;;3.03;;
46835;SDS011;32573;51.290;6.926;2023-12-04T10:16:31;5.57;;;2.60;;
46835;SDS011;32573;51.290;6.926;2023-12-04T10:19:16;7.05;;;2.72;;
46835;SDS011;32573;51.290;6.926;2023-12-04T10:21:48;4.55;;;1.92;;
46835;SDS011;32573;51.290;6.926;2023-12-04T10:24:27;5.65;;;2.38;;
46835;SDS011;32573;51.290;6.926;2023-12-04T10:26:57;5.60;;;2.20;;
46835;SDS011;32573;51.290;6.926;2023-12-04T10:29:26;4.70;;;2.15;;
46835;SDS011;32573;51.290;6.926;2023-12-04T10:31:58;4.88;;;2.35;;
46835;SDS011;32573;51.290;6.926;2023-12-04T10:34:29;7.13;;;2.22;;
46835;SDS011;32573;51.290;6.926;2023-12-04T10:37:03;5.25;;;2.38;;
46835;SDS011;32573;51.290;6.926;2023-12-04T10:39:33;4.32;;;2.13;;
46835;SDS011;32573;51.290;6.926;2023-12-04T10:42:22;4.40;;;2.10;;
46835;SDS011;32573;51.290;6.926;2023-12-04T10:44:54;6.00;;;2.90;;
46835;SDS011;32573;51.290;6.926;2023-12-04T10:47:23;4.85;;;2.10;;
46835;SDS011;32573;51.290;6.926;2023-12-04T10:49:52;7.22;;;2.97;;
46835;SDS011;32573;51.290;6.926;2023-12-04T10:52:23;7.10;;;2.90;;
46835;SDS011;32573;51.290;6.926;2023-12-04T10:54:52;6.70;;;2.88;;
46835;SDS011;32573;51.290;6.926;2023-12-04T10:57:22;6.65;;;2.90;;
46835;SDS011;32573;51.290;6.926;2023-12-04T10:59:56;5.28;;;2.10;;
46835;SDS011;32573;51.290;6.926;2023-12-04T11:02:26;7.50;;;2.90;;
46835;SDS011;32573;51.290;6.926;2023-12-04T11:04:58;5.88;;;2.33;;
46835;SDS011;32573;51.290;6.926;2023-12-04T11:07:36;6.13;;;2.67;;
46835;SDS011;32573;51.290;6.926;2023-12-04T11:10:25;6.80;;;2.65;;
46835;SDS011;32573;51.290;6.926;2023-12-04T11:12:56;4.80;;;2.33;;
46835;SDS011;32573;51.290;6.926;2023-12-04T11:15:29;5.68;;;2.45;;
46835;SDS011;32573;51.290;6.926;2023-12-04T11:18:00;4.15;;;1.92;;
46835;SDS011;32573;51.290;6.926;2023-12-04T11:20:29;6.20;;;2.80;;
46835;SDS011;32573;51.290;6.926;2023-12-04T11:23:02;4.93;;;2.33;;
46835;SDS011;32573;51.290;6.926;2023-12-04T11:25:33;6.03;;;2.85;;
46835;SDS011;32573;51.290;6.926;2023-12-04T11:28:02;7.93;;;3.20;;
46835;SDS011;32573;51.290;6.926;2023-12-04T11:30:32;5.65;;;2.50;;
46835;SDS011;32573;51.290;6.926;2023-12-04T11:33:01;6.25;;;2.45;;
46835;SDS011;32573;51.290;6.926;2023-12-04T11:35:29;6.45;;;3.05;;
46835;SDS011;32573;51.290;6.926;2023-12-04T11:37:58;5.18;;;2.50;;
46835;SDS011;32573;51.290;6.926;2023-12-04T11:40:28;7.47;;;2.88;;
46835;SDS011;32573;51.290;6.926;2023-12-04T11:42:56;4.85;;;2.33;;
46835;SDS011;32573;51.290;6.926;2023-12-04T11:45:24;5.53;;;2.58;;
46835;SDS011;32573;51.290;6.926;2023-12-04T11:47:54;6.82;;;2.80;;
46835;SDS011;32573;51.290;6.926;2023-12-04T11:50:23;5.75;;;2.80;;
46835;SDS011;32573;51.290;6.926;2023-12-04T11:52:52;5.30;;;2.92;;
46835;SDS011;32573;51.290;6.926;2023-12-04T11:55:22;6.85;;;3.20;;
46835;SDS011;32573;51.290;6.926;2023-12-04T11:57:55;5.88;;;2.80;;
46835;SDS011;32573;51.290;6.926;2023-12-04T12:00:24;5.60;;;2.67;;
46835;SDS011;32573;51.290;6.926;2023-12-04T12:03:03;6.05;;;2.90;;
46835;SDS011;32573;51.290;6.926;2023-12-04T12:05:48;7.45;;;3.10;;
46835;SDS011;32573;51.290;6.926;2023-12-04T12:08:20;6.25;;;2.47;;
46835;SDS011;32573;51.290;6.926;2023-12-04T12:10:51;5.57;;;2.60;;
46835;SDS011;32573;51.290;6.926;2023-12-04T12:13:22;6.32;;;2.58;;
46835;SDS011;32573;51.290;6.926;2023-12-04T12:15:52;5.15;;;2.42;;
46835;SDS011;32573;51.290;6.926;2023-12-04T12:18:22;5.22;;;2.33;;
46835;SDS011;32573;51.290;6.926;2023-12-04T12:20:54;5.80;;;2.58;;
46835;SDS011;32573;51.290;6.926;2023-12-04T12:23:23;6.00;;;2.63;;
46835;SDS011;32573;51.290;6.926;2023-12-04T12:25:52;4.85;;;2.40;;
46835;SDS011;32573;51.290;6.926;2023-12-04T12:28:23;5.97;;;2.35;;
46835;SDS011;32573;51.290;6.926;2023-12-04T12:30:51;5.78;;;2.55;;
46835;SDS011;32573;51.290;6.926;2023-12-04T12:33:20;4.95;;;2.28;;
46835;SDS011;32573;51.290;6.926;2023-12-04T12:35:50;5.60;;;2.63;;
46835;SDS011;32573;51.290;6.926;2023-12-04T12:38:29;5.13;;;2.47;;
46835;SDS011;32573;51.290;6.926;2023-12-04T12:41:01;5.13;;;2.38;;
46835;SDS011;32573;51.290;6.926;2023-12-04T12:43:35;5.60;;;2.38;;
46835;SDS011;32573;51.290;6.926;2023-12-04T12:46:04;5.50;;;2.67;;
46835;SDS011;32573;51.290;6.926;2023-12-04T12:48:33;5.68;;;2.70;;
46835;SDS011;32573;51.290;6.926;2023-12-04T12:51:03;6.40;;;2.80;;
46835;SDS011;32573;51.290;6.926;2023-12-04T12:53:32;5.38;;;2.92;;
46835;SDS011;32573;51.290;6.926;2023-12-04T12:56:01;4.78;;;2.15;;
46835;SDS011;32573;51.290;6.926;2023-12-04T12:58:30;4.68;;;2.45;;
46835;SDS011;32573;51.290;6.926;2023-12-04T13:01:00;4.72;;;2.35;;
46835;SDS011;32573;51.290;6.926;2023-12-04T13:03:30;5.28;;;2.17;;
46835;SDS011;32573;51.290;6.926;2023-12-04T13:05:59;5.22;;;2.58;;
46835;SDS011;32573;51.290;6.926;2023-12-04T13:08:27;5.80;;;2.42;;
46835;SDS011;32573;51.290;6.926;2023-12-04T13:10:55;4.75;;;2.15;;
46835;SDS011;32573;51.290;6.926;2023-12-04T13:13:24;4.75;;;2.22;;
46835;SDS011;32573;51.290;6.926;2023-12-04T13:15:54;5.75;;;2.45;;
46835;SDS011;32573;51.290;6.926;2023-12-04T13:18:24;7.30;;;3.20;;
46835;SDS011;32573;51.290;6.926;2023-12-04T13:20:53;6.45;;;2.60;;
46835;SDS011;32573;51.290;6.926;2023-12-04T13:23:21;5.30;;;2.47;;
46835;SDS011;32573;51.290;6.926;2023-12-04T13:25:51;4.82;;;2.33;;
46835;SDS011;32573;51.290;6.926;2023-12-04T13:28:21;5.55;;;2.47;;
46835;SDS011;32573;51.290;6.926;2023-12-04T13:31:02;5.70;;;2.47;;
46835;SDS011;32573;51.290;6.926;2023-12-04T13:33:32;5.40;;;2.50;;
46835;SDS011;32573;51.290;6.926;2023-12-04T13:36:01;6.05;;;2.92;;
46835;SDS011;32573;51.290;6.926;2023-12-04T13:38:31;6.18;;;2.50;;
46835;SDS011;32573;51.290;6.926;2023-12-04T13:41:04;6.55;;;2.97;;
46835;SDS011;32573;51.290;6.926;2023-12-04T13:43:56;5.18;;;2.28;;
46835;SDS011;32573;51.290;6.926;2023-12-04T13:46:26;6.03;;;2.78;;
46835;SDS011;32573;51.290;6.926;2023-12-04T13:48:58;6.18;;;2.88;;
46835;SDS011;32573;51.290;6.926;2023-12-04T13:51:27;6.57;;;3.00;;
46835;SDS011;32573;51.290;6.926;2023-12-04T13:53:55;6.70;;;2.97;;
46835;SDS011;32573;51.290;6.926;2023-12-04T13:56:30;6.53;;;2.50;;
46835;SDS011;32573;51.290;6.926;2023-12-04T13:59:11;4.55;;;2.00;;
46835;SDS011;32573;51.290;6.926;2023-12-04T14:01:46;4.57;;;2.08;;
46835;SDS011;32573;51.290;6.926;2023-12-04T14:04:18;5.00;;;2.40;;
46835;SDS011;32573;51.290;6.926;2023-12-04T14:06:51;5.35;;;2.38;;
46835;SDS011;32573;51.290;6.926;2023-12-04T14:09:20;5.47;;;2.17;;
46835;SDS011;32573;51.290;6.926;2023-12-04T14:11:49;4.82;;;2.20;;
46835;SDS011;32573;51.290;6.926;2023-12-04T14:14:17;4.10;;;1.92;;
46835;SDS011;32573;51.290;6.926;2023-12-04T14:16:45;4.10;;;1.60;;
46835;SDS011;32573;51.290;6.926;2023-12-04T14:19:15;4.03;;;1.75;;
46835;SDS011;32573;51.290;6.926;2023-12-04T14:21:49;5.40;;;2.22;;
46835;SDS011;32573;51.290;6.926;2023-12-04T14:24:17;5.20;;;2.20;;
46835;SDS011;32573;51.290;6.926;2023-12-04T14:26:45;4.65;;;2.20;;
46835;SDS011;32573;51.290;6.926;2023-12-04T14:29:14;4.78;;;2.10;;
46835;SDS011;32573;51.290;6.926;2023-12-04T14:31:42;5.15;;;2.47;;
46835;SDS011;32573;51.290;6.926;2023-12-04T14:34:11;4.10;;;1.65;;
46835;SDS011;32573;51.290;6.926;2023-12-04T14:36:39;3.58;;;1.73;;
46835;SDS011;32573;51.290;6.926;2023-12-04T14:39:09;4.95;;;2.08;;
46835;SDS011;32573;51.290;6.926;2023-12-04T14:41:39;4.78;;;1.80;;
46835;SDS011;32573;51.290;6.926;2023-12-04T14:44:07;4.38;;;2.00;;
46835;SDS011;32573;51.290;6.926;2023-12-04T14:46:36;5.05;;;2.08;;
46835;SDS011;32573;51.290;6.926;2023-12-04T14:49:05;4.15;;;1.90;;
46835;SDS011;32573;51.290;6.926;2023-12-04T14:51:33;3.78;;;1.80;;
46835;SDS011;32573;51.290;6.926;2023-12-04T14:54:02;4.40;;;1.95;;
46835;SDS011;32573;51.290;6.926;2023-12-04T14:56:44;5.50;;;2.63;;
46835;SDS011;32573;51.290;6.926;2023-12-04T14:59:39;4.18;;;2.00;;
46835;SDS011;32573;51.290;6.926;2023-12-04T15:02:37;4.72;;;2.05;;
46835;SDS011;32573;51.290;6.926;2023-12-04T15:05:34;4.75;;;1.80;;